createdAt,value
2022-10-15T00:01:41.841Z,3.67
2022-10-15T00:04:08.661Z,3.50
2022-10-15T00:06:35.566Z,3.25
2022-10-15T00:09:02.808Z,3.10
2022-10-15T00:11:29.724Z,3.58
2022-10-15T00:13:57.857Z,3.53
2022-10-15T00:16:26.453Z,3.55
2022-10-15T00:18:55.535Z,3.65
2022-10-15T00:21:22.403Z,3.00
2022-10-15T00:23:49.516Z,3.08
2022-10-15T00:26:17.656Z,3.33
2022-10-15T00:28:47.576Z,2.95
2022-10-15T00:31:15.962Z,3.47
2022-10-15T00:33:43.406Z,3.30
2022-10-15T00:36:14.585Z,3.17
2022-10-15T00:38:41.467Z,3.13
2022-10-15T00:41:10.734Z,2.60
2022-10-15T00:43:40.519Z,3.40
2022-10-15T00:46:14.275Z,3.00
2022-10-15T00:48:41.108Z,3.45
2022-10-15T00:51:08.444Z,3.50
2022-10-15T00:53:35.527Z,3.53
2022-10-15T00:56:02.813Z,3.40
2022-10-15T00:58:31.931Z,4.18
2022-10-15T01:00:58.856Z,3.40
2022-10-15T01:03:25.633Z,3.35
2022-10-15T01:05:52.961Z,3.05
2022-10-15T01:08:19.752Z,2.67
2022-10-15T01:11:02.498Z,3.40
2022-10-15T01:13:35.623Z,3.03
2022-10-15T01:16:08.267Z,2.90
2022-10-15T01:18:55.375Z,3.38
2022-10-15T01:21:30.035Z,3.20
2022-10-15T01:24:17.079Z,3.47
2022-10-15T01:26:43.786Z,3.55
2022-10-15T01:29:25.632Z,3.10
2022-10-15T01:31:57.318Z,3.53
2022-10-15T01:34:30.161Z,3.05
2022-10-15T01:37:08.494Z,3.40
2022-10-15T01:39:39.956Z,3.58
2022-10-15T01:44:43.843Z,2.92
2022-10-15T01:47:23.002Z,3.75
2022-10-15T01:49:51.496Z,3.28
2022-10-15T01:52:21.570Z,4.00
2022-10-15T01:54:49.427Z,2.80
2022-10-15T01:57:17.607Z,3.55
2022-10-15T01:59:44.643Z,4.40
2022-10-15T02:02:11.483Z,3.83
2022-10-15T02:04:38.264Z,4.85
2022-10-15T02:07:10.943Z,4.40
2022-10-15T02:09:56.342Z,4.00
2022-10-15T02:12:28.951Z,4.45
2022-10-15T02:14:58.991Z,4.40
2022-10-15T02:17:34.203Z,4.28
2022-10-15T02:20:06.917Z,4.88
2022-10-15T02:22:59.970Z,4.50
2022-10-15T02:25:28.103Z,3.70
2022-10-15T02:27:56.068Z,4.45
2022-10-15T02:30:23.143Z,3.90
2022-10-15T02:32:56.721Z,4.15
2022-10-15T02:35:23.779Z,4.50
2022-10-15T02:37:52.843Z,4.47
2022-10-15T02:40:25.024Z,4.32
2022-10-15T02:42:52.114Z,3.95
2022-10-15T02:45:18.974Z,4.15
2022-10-15T02:47:45.765Z,4.20
2022-10-15T02:50:12.550Z,3.85
2022-10-15T02:52:39.306Z,4.53
2022-10-15T02:55:06.864Z,5.05
2022-10-15T02:57:33.597Z,4.30
2022-10-15T03:00:00.341Z,4.65
2022-10-15T03:02:27.390Z,5.10
2022-10-15T03:04:54.146Z,4.95
2022-10-15T03:07:21.097Z,4.32
2022-10-15T03:09:48.138Z,4.95
2022-10-15T03:12:14.902Z,4.85
2022-10-15T03:14:41.654Z,5.32
2022-10-15T03:17:08.445Z,5.88
2022-10-15T03:19:35.170Z,5.60
2022-10-15T03:22:01.897Z,5.75
2022-10-15T03:24:28.716Z,5.60
2022-10-15T03:26:55.455Z,5.72
2022-10-15T03:29:22.368Z,4.88
2022-10-15T03:31:49.189Z,5.07
2022-10-15T03:34:15.981Z,5.72
2022-10-15T03:36:42.854Z,4.75
2022-10-15T03:39:10.807Z,4.90
2022-10-15T03:41:37.690Z,5.10
2022-10-15T03:44:05.436Z,5.10
2022-10-15T03:46:32.804Z,4.72
2022-10-15T03:48:59.822Z,5.07
2022-10-15T03:51:30.673Z,4.88
2022-10-15T03:53:58.312Z,4.50
2022-10-15T03:56:25.112Z,4.50
2022-10-15T03:58:51.900Z,4.22
2022-10-15T04:01:18.892Z,4.30
2022-10-15T04:03:46.011Z,4.95
2022-10-15T04:06:12.750Z,4.50
2022-10-15T04:08:39.618Z,4.38
2022-10-15T04:11:06.399Z,3.95
2022-10-15T04:13:33.135Z,3.90
2022-10-15T04:15:59.931Z,4.57
2022-10-15T04:18:26.713Z,3.80
2022-10-15T04:20:53.489Z,3.95
2022-10-15T04:23:20.304Z,4.07
2022-10-15T04:25:47.164Z,4.05
2022-10-15T04:28:13.910Z,4.40
2022-10-15T04:30:40.710Z,3.50
2022-10-15T04:33:07.536Z,3.58
2022-10-15T04:35:35.121Z,3.50
2022-10-15T04:38:02.235Z,3.47
2022-10-15T04:40:28.998Z,3.22
2022-10-15T04:42:55.710Z,3.25
2022-10-15T04:47:54.163Z,3.55
2022-10-15T04:50:20.878Z,3.20
2022-10-15T04:52:48.652Z,3.60
2022-10-15T04:55:15.437Z,3.80
2022-10-15T04:57:42.213Z,3.78
2022-10-15T05:00:09.404Z,3.85
2022-10-15T05:02:36.366Z,3.20
2022-10-15T05:05:03.295Z,3.03
2022-10-15T05:07:30.091Z,3.88
2022-10-15T05:09:56.925Z,3.75
2022-10-15T05:12:23.824Z,3.17
2022-10-15T05:14:50.877Z,3.40
2022-10-15T05:17:17.658Z,3.00
2022-10-15T05:19:44.400Z,3.25
2022-10-15T05:22:11.351Z,3.30
2022-10-15T05:24:38.235Z,3.63
2022-10-15T05:27:05.104Z,3.50
2022-10-15T05:29:31.948Z,3.35
2022-10-15T05:31:58.737Z,4.72
2022-10-15T05:34:28.586Z,4.43
2022-10-15T05:36:55.359Z,5.10
2022-10-15T05:39:22.111Z,4.70
2022-10-15T05:41:49.521Z,5.55
2022-10-15T05:44:16.494Z,4.78
2022-10-15T05:46:43.258Z,4.90
2022-10-15T05:49:10.025Z,4.40
2022-10-15T05:51:37.617Z,4.60
2022-10-15T05:54:04.335Z,3.75
2022-10-15T05:56:31.090Z,3.75
2022-10-15T05:58:58.290Z,3.78
2022-10-15T06:01:25.076Z,3.90
2022-10-15T06:03:51.823Z,3.55
2022-10-15T06:06:19.922Z,3.72
2022-10-15T06:08:47.144Z,3.75
2022-10-15T06:11:14.084Z,4.00
2022-10-15T06:13:41.737Z,4.00
2022-10-15T06:16:09.135Z,3.83
2022-10-15T06:18:36.479Z,3.78
2022-10-15T06:21:03.730Z,4.97
2022-10-15T06:23:30.736Z,4.15
2022-10-15T06:26:01.494Z,3.78
2022-10-15T06:28:28.408Z,4.28
2022-10-15T06:30:59.979Z,3.90
2022-10-15T06:35:53.456Z,3.38
2022-10-15T06:38:20.475Z,3.53
2022-10-15T06:40:47.280Z,3.45
2022-10-15T06:43:14.056Z,3.75
2022-10-15T06:45:42.485Z,3.40
2022-10-15T06:48:09.217Z,3.63
2022-10-15T06:50:36.907Z,3.72
2022-10-15T06:53:03.850Z,3.50
2022-10-15T06:55:30.696Z,3.92
2022-10-15T06:57:58.005Z,3.85
2022-10-15T07:00:25.014Z,3.53
2022-10-15T07:02:51.811Z,4.07
2022-10-15T07:05:18.917Z,3.38
2022-10-15T07:07:52.749Z,4.00
2022-10-15T07:12:47.825Z,3.42
2022-10-15T07:15:14.765Z,3.45
2022-10-15T07:17:51.400Z,4.00
2022-10-15T07:20:21.819Z,3.60
2022-10-15T07:22:50.188Z,3.90
2022-10-15T07:25:17.947Z,3.17
2022-10-15T07:27:44.833Z,2.78
2022-10-15T07:30:11.689Z,3.40
2022-10-15T07:32:38.558Z,3.03
2022-10-15T07:35:08.040Z,3.15
2022-10-15T07:37:37.134Z,2.47
2022-10-15T07:40:04.697Z,2.78
2022-10-15T07:42:31.451Z,2.15
2022-10-15T07:45:02.014Z,2.67
2022-10-15T07:47:36.060Z,2.38
2022-10-15T07:50:08.412Z,2.58
2022-10-15T07:52:39.351Z,2.58
2022-10-15T07:55:11.758Z,2.50
2022-10-15T07:57:42.103Z,2.92
2022-10-15T08:00:09.466Z,2.47
2022-10-15T08:02:39.134Z,2.85
2022-10-15T08:05:11.865Z,2.10
2022-10-15T08:07:38.862Z,1.95
2022-10-15T08:10:12.636Z,2.50
2022-10-15T08:15:33.805Z,1.60
2022-10-15T08:18:03.261Z,2.00
2022-10-15T08:20:37.764Z,2.15
2022-10-15T08:23:07.544Z,2.28
2022-10-15T08:25:39.015Z,2.17
2022-10-15T08:28:10.995Z,1.83
2022-10-15T08:30:41.568Z,1.90
2022-10-15T08:33:09.374Z,1.60
2022-10-15T08:35:41.779Z,1.75
2022-10-15T08:38:09.068Z,1.52
2022-10-15T08:40:39.468Z,1.88
2022-10-15T08:43:19.555Z,1.30
2022-10-15T08:45:48.805Z,1.75
2022-10-15T08:48:19.679Z,1.30
2022-10-15T08:51:12.885Z,1.33
2022-10-15T08:53:46.289Z,1.05
2022-10-15T08:56:38.240Z,1.30
2022-10-15T08:59:30.353Z,1.00
2022-10-15T09:02:00.997Z,1.08
2022-10-15T09:04:48.868Z,1.00
2022-10-15T09:07:40.179Z,1.02
2022-10-15T09:10:08.913Z,1.10
2022-10-15T09:12:41.684Z,1.10
2022-10-15T09:15:12.798Z,0.85
2022-10-15T09:17:39.830Z,1.30
2022-10-15T09:20:07.904Z,0.90
2022-10-15T09:22:35.339Z,0.88
2022-10-15T09:25:13.656Z,0.88
2022-10-15T09:27:40.825Z,0.93
2022-10-15T09:30:25.989Z,1.05
2022-10-15T09:32:59.776Z,0.85
2022-10-15T09:35:28.779Z,0.70
2022-10-15T09:38:06.095Z,0.77
2022-10-15T09:40:36.145Z,0.77
2022-10-15T09:43:04.565Z,0.90
2022-10-15T09:45:34.860Z,0.70
2022-10-15T09:48:03.006Z,0.70
2022-10-15T09:50:50.099Z,0.57
2022-10-15T09:53:28.841Z,0.75
2022-10-15T09:56:02.698Z,0.70
2022-10-15T09:58:33.767Z,0.70
2022-10-15T10:01:01.734Z,0.70
2022-10-15T10:03:32.739Z,0.70
2022-10-15T10:06:17.798Z,0.60
2022-10-15T10:11:15.374Z,0.80
2022-10-15T10:13:51.171Z,0.88
2022-10-15T10:16:18.844Z,0.65
2022-10-15T10:19:00.915Z,0.80
2022-10-15T10:21:32.484Z,0.60
2022-10-15T10:24:17.922Z,0.70
2022-10-15T10:26:45.605Z,0.80
2022-10-15T10:29:32.825Z,0.88
2022-10-15T10:32:09.568Z,0.80
2022-10-15T10:34:36.443Z,1.67
2022-10-15T10:37:04.705Z,0.45
2022-10-15T10:39:32.484Z,0.77
2022-10-15T10:42:05.019Z,1.08
2022-10-15T10:44:39.567Z,0.80
2022-10-15T10:47:09.105Z,0.73
2022-10-15T10:49:43.696Z,0.65
2022-10-15T10:52:19.415Z,0.80
2022-10-15T10:54:46.853Z,0.80
2022-10-15T10:57:16.861Z,0.70
2022-10-15T10:59:48.279Z,0.50
2022-10-15T11:04:41.716Z,0.85
2022-10-15T11:07:18.063Z,0.73
2022-10-15T11:09:44.780Z,1.10
2022-10-15T11:12:24.824Z,0.70
2022-10-15T11:14:54.912Z,0.68
2022-10-15T11:17:35.944Z,0.60
2022-10-15T11:20:26.848Z,0.85
2022-10-15T11:22:52.422Z,0.70
2022-10-15T11:25:37.254Z,0.70
2022-10-15T11:28:19.455Z,0.40
2022-10-15T11:30:51.673Z,0.60
2022-10-15T11:33:18.404Z,0.70
2022-10-15T11:35:53.927Z,0.60
2022-10-15T11:38:35.870Z,0.73
2022-10-15T11:41:02.622Z,0.63
2022-10-15T11:43:38.824Z,0.63
2022-10-15T11:46:25.904Z,0.80
2022-10-15T11:48:52.640Z,0.82
2022-10-15T11:51:34.281Z,0.98
2022-10-15T11:54:12.384Z,0.82
2022-10-15T11:56:48.826Z,0.73
2022-10-15T11:59:28.074Z,1.20
2022-10-15T12:02:01.027Z,1.05
2022-10-15T12:04:33.924Z,1.00
2022-10-15T12:07:02.042Z,1.10
2022-10-15T12:09:31.882Z,0.90
2022-10-15T12:12:20.116Z,1.25
2022-10-15T12:15:06.624Z,1.00
2022-10-15T12:17:33.384Z,1.05
2022-10-15T12:20:12.525Z,0.63
2022-10-15T12:22:40.926Z,0.90
2022-10-15T12:25:27.696Z,0.52
2022-10-15T12:28:13.116Z,0.77
2022-10-15T12:30:42.502Z,0.80
2022-10-15T12:33:35.461Z,1.02
2022-10-15T12:36:09.318Z,0.82
2022-10-15T12:38:38.615Z,0.98
2022-10-15T12:41:11.686Z,0.80
2022-10-15T12:43:41.089Z,1.00
2022-10-15T12:46:09.135Z,1.08
2022-10-15T12:48:37.534Z,0.90
2022-10-15T12:51:16.222Z,1.00
2022-10-15T12:53:43.696Z,1.40
2022-10-15T12:56:10.644Z,1.10
2022-10-15T12:58:47.565Z,1.38
2022-10-15T13:01:14.376Z,1.00
2022-10-15T13:03:53.256Z,1.10
2022-10-15T13:06:23.007Z,0.90
2022-10-15T13:08:49.786Z,0.98
2022-10-15T13:11:22.898Z,0.90
2022-10-15T13:13:51.191Z,1.05
2022-10-15T13:16:18.091Z,1.15
2022-10-15T13:18:49.410Z,0.90
2022-10-15T13:23:46.797Z,1.10
2022-10-15T13:26:13.560Z,1.02
2022-10-15T13:28:42.233Z,1.15
2022-10-15T13:31:14.966Z,1.00
2022-10-15T13:33:43.267Z,0.90
2022-10-15T13:36:17.272Z,0.60
2022-10-15T13:38:47.227Z,1.10
2022-10-15T13:41:14.343Z,0.70
2022-10-15T13:43:50.650Z,0.95
2022-10-15T13:46:17.407Z,0.70
2022-10-15T13:51:15.807Z,0.80
2022-10-15T13:53:42.643Z,1.08
2022-10-15T13:56:25.237Z,0.90
2022-10-15T13:58:52.497Z,1.17
2022-10-15T14:01:23.363Z,0.80
2022-10-15T14:03:51.095Z,0.90
2022-10-15T14:06:19.427Z,0.43
2022-10-15T14:08:47.472Z,0.75
2022-10-15T14:11:14.632Z,1.02
2022-10-15T14:13:49.017Z,0.80
2022-10-15T14:16:19.809Z,1.25
2022-10-15T14:18:49.398Z,0.77
2022-10-15T14:21:20.571Z,0.80
2022-10-15T14:23:47.913Z,0.80
2022-10-15T14:26:16.823Z,0.80
2022-10-15T14:28:50.261Z,0.80
2022-10-15T14:31:29.619Z,1.17
2022-10-15T14:33:56.371Z,1.00
2022-10-15T14:36:26.989Z,1.20
2022-10-15T14:38:54.497Z,0.70
2022-10-15T14:41:22.988Z,1.00
2022-10-15T14:44:09.978Z,1.30
2022-10-15T14:46:43.937Z,0.85
2022-10-15T14:49:18.878Z,0.82
2022-10-15T14:51:46.132Z,0.60
2022-10-15T14:54:18.653Z,0.95
2022-10-15T14:56:45.443Z,0.80
2022-10-15T14:59:17.782Z,0.70
2022-10-15T15:01:57.281Z,0.60
2022-10-15T15:04:34.477Z,0.73
2022-10-15T15:07:01.295Z,0.85
2022-10-15T15:09:28.163Z,0.90
2022-10-15T15:11:55.002Z,0.80
2022-10-15T15:14:25.672Z,0.82
2022-10-15T15:16:52.564Z,1.00
2022-10-15T15:19:19.375Z,0.85
2022-10-15T15:21:46.135Z,1.17
2022-10-15T15:24:13.135Z,0.80
2022-10-15T15:26:39.922Z,0.77
2022-10-15T15:29:15.616Z,0.80
2022-10-15T15:31:42.437Z,1.33
2022-10-15T15:34:09.266Z,0.80
2022-10-15T15:36:36.082Z,0.80
2022-10-15T15:39:03.065Z,1.10
2022-10-15T15:41:30.992Z,1.10
2022-10-15T15:44:01.179Z,1.33
2022-10-15T15:46:28.075Z,1.30
2022-10-15T15:48:57.006Z,1.10
2022-10-15T15:51:28.275Z,1.50
2022-10-15T15:53:55.221Z,1.23
2022-10-15T15:56:22.749Z,1.35
2022-10-15T15:58:52.999Z,1.10
2022-10-15T16:01:20.393Z,1.10
2022-10-15T16:03:47.261Z,1.27
2022-10-15T16:06:14.141Z,1.13
2022-10-15T16:08:40.947Z,1.45
2022-10-15T16:11:07.724Z,1.45
2022-10-15T16:13:34.840Z,1.50
2022-10-15T16:16:01.598Z,1.08
2022-10-15T16:18:28.349Z,1.40
2022-10-15T16:20:55.397Z,1.05
2022-10-15T16:23:22.161Z,1.10
2022-10-15T16:25:48.934Z,1.15
2022-10-15T16:28:15.709Z,1.20
2022-10-15T16:30:42.520Z,1.10
2022-10-15T16:35:41.118Z,1.30
2022-10-15T16:38:08.635Z,1.50
2022-10-15T16:40:35.525Z,1.50
2022-10-15T16:43:02.390Z,1.90
2022-10-15T16:45:29.127Z,1.25
2022-10-15T16:47:55.959Z,1.30
2022-10-15T16:50:25.586Z,1.30
2022-10-15T16:52:52.415Z,1.70
2022-10-15T16:55:21.740Z,1.20
2022-10-15T16:57:48.507Z,1.38
2022-10-15T17:00:15.298Z,1.38
2022-10-15T17:02:42.110Z,1.88
2022-10-15T17:05:08.967Z,1.38
2022-10-15T17:07:36.161Z,2.13
2022-10-15T17:10:03.196Z,1.73
2022-10-15T17:12:29.976Z,1.63
2022-10-15T17:14:56.742Z,1.83
2022-10-15T17:17:23.550Z,1.77
2022-10-15T17:19:50.432Z,1.48
2022-10-15T17:22:17.299Z,1.60
2022-10-15T17:24:44.061Z,1.50
2022-10-15T17:27:11.121Z,1.85
2022-10-15T17:29:38.239Z,1.73
2022-10-15T17:32:05.052Z,1.50
2022-10-15T17:34:31.851Z,1.67
2022-10-15T17:36:58.659Z,1.90
2022-10-15T17:39:25.611Z,1.65
2022-10-15T17:41:52.611Z,1.65
2022-10-15T17:44:19.961Z,1.58
2022-10-15T17:46:46.722Z,1.80
2022-10-15T17:49:18.249Z,2.05
2022-10-15T17:51:45.621Z,2.25
2022-10-15T17:54:12.448Z,2.17
2022-10-15T17:56:39.701Z,2.08
2022-10-15T17:59:07.602Z,2.30
2022-10-15T18:01:57.323Z,2.17
2022-10-15T18:04:24.977Z,1.92
2022-10-15T18:06:52.239Z,1.90
2022-10-15T18:09:19.041Z,1.60
2022-10-15T18:11:48.854Z,1.48
2022-10-15T18:16:45.883Z,1.40
2022-10-15T18:19:12.813Z,1.65
2022-10-15T18:21:39.671Z,1.67
2022-10-15T18:24:08.978Z,1.60
2022-10-15T18:26:35.811Z,1.58
2022-10-15T18:29:02.627Z,1.42
2022-10-15T18:31:31.299Z,1.30
2022-10-15T18:33:58.111Z,1.70
2022-10-15T18:36:26.757Z,1.42
2022-10-15T18:38:56.483Z,1.38
2022-10-15T18:41:23.274Z,1.27
2022-10-15T18:43:54.759Z,1.50
2022-10-15T18:48:49.054Z,1.30
2022-10-15T18:51:15.857Z,1.40
2022-10-15T18:53:42.817Z,1.70
2022-10-15T18:56:10.184Z,1.63
2022-10-15T18:58:39.098Z,1.30
2022-10-15T19:01:11.806Z,1.85
2022-10-15T19:03:38.680Z,1.20
2022-10-15T19:06:05.505Z,1.42
2022-10-15T19:08:32.330Z,1.58
2022-10-15T19:11:08.710Z,1.42
2022-10-15T19:13:36.212Z,1.60
2022-10-15T19:16:03.731Z,1.17
2022-10-15T19:18:30.818Z,1.33
2022-10-15T19:20:57.657Z,2.10
2022-10-15T19:23:24.627Z,1.52
2022-10-15T19:25:51.538Z,1.40
2022-10-15T19:28:21.059Z,1.20
2022-10-15T19:30:55.135Z,1.58
2022-10-15T19:33:21.890Z,2.00
2022-10-15T19:35:48.961Z,1.55
2022-10-15T19:38:15.903Z,1.48
2022-10-15T19:40:45.947Z,1.40
2022-10-15T19:43:15.834Z,2.05
2022-10-15T19:45:43.247Z,1.85
2022-10-15T19:48:14.626Z,1.52
2022-10-15T19:50:42.457Z,2.00
2022-10-15T19:53:11.515Z,2.08
2022-10-15T19:55:41.639Z,1.80
2022-10-15T19:58:08.675Z,1.83
2022-10-15T20:00:35.526Z,1.98
2022-10-15T20:03:02.484Z,1.80
2022-10-15T20:05:29.249Z,1.80
2022-10-15T20:07:56.025Z,2.25
2022-10-15T20:10:26.420Z,2.22
2022-10-15T20:12:53.757Z,2.25
2022-10-15T20:15:23.453Z,2.33
2022-10-15T20:17:50.323Z,1.92
2022-10-15T20:20:17.070Z,1.92
2022-10-15T20:22:43.884Z,1.98
2022-10-15T20:25:11.909Z,2.65
2022-10-15T20:27:38.680Z,2.60
2022-10-15T20:30:06.018Z,2.65
2022-10-15T20:32:35.254Z,1.98
2022-10-15T20:35:03.036Z,1.85
2022-10-15T20:37:29.990Z,1.70
2022-10-15T20:42:28.652Z,1.70
2022-10-15T20:44:55.631Z,1.75
2022-10-15T20:47:23.458Z,1.65
2022-10-15T20:49:52.383Z,2.20
2022-10-15T20:52:19.248Z,1.95
2022-10-15T20:54:46.105Z,2.50
2022-10-15T20:57:12.947Z,2.30
2022-10-15T20:59:39.734Z,2.83
2022-10-15T21:02:06.696Z,3.28
2022-10-15T21:04:33.442Z,2.83
2022-10-15T21:07:00.243Z,3.92
2022-10-15T21:09:26.997Z,4.10
2022-10-15T21:11:53.763Z,3.85
2022-10-15T21:14:20.820Z,3.33
2022-10-15T21:16:47.632Z,2.63
2022-10-15T21:19:14.434Z,2.30
2022-10-15T21:21:41.240Z,2.90
2022-10-15T21:24:08.018Z,1.75
2022-10-15T21:26:34.913Z,2.22
2022-10-15T21:29:01.852Z,2.15
2022-10-15T21:31:28.668Z,2.70
2022-10-15T21:33:55.721Z,2.00
2022-10-15T21:36:25.105Z,1.85
2022-10-15T21:38:52.938Z,1.70
2022-10-15T21:41:19.996Z,2.22
2022-10-15T21:43:46.863Z,1.80
2022-10-15T21:46:13.959Z,1.60
2022-10-15T21:48:41.425Z,1.88
2022-10-15T21:51:16.239Z,1.50
2022-10-15T21:53:43.225Z,1.90
2022-10-15T21:56:09.988Z,2.05
2022-10-15T21:58:38.081Z,2.72
2022-10-15T22:01:17.253Z,2.10
2022-10-15T22:03:46.356Z,2.00
2022-10-15T22:06:13.659Z,1.80
2022-10-15T22:08:40.452Z,1.75
2022-10-15T22:11:17.540Z,1.90
2022-10-15T22:13:45.915Z,1.73
2022-10-15T22:16:13.358Z,2.00
2022-10-15T22:18:40.607Z,1.90
2022-10-15T22:21:27.629Z,1.80
2022-10-15T22:23:55.998Z,1.58
2022-10-15T22:26:26.860Z,1.50
2022-10-15T22:28:54.609Z,1.95
2022-10-15T22:31:21.851Z,1.85
2022-10-15T22:33:48.897Z,1.77
2022-10-15T22:36:17.575Z,1.83
2022-10-15T22:38:45.685Z,1.80
2022-10-15T22:41:13.412Z,2.15
2022-10-15T22:43:40.460Z,1.50
2022-10-15T22:46:07.491Z,1.90
2022-10-15T22:48:35.095Z,2.05
2022-10-15T22:51:02.648Z,2.10
2022-10-15T22:53:29.718Z,1.70
2022-10-15T22:55:57.735Z,1.60
2022-10-15T22:58:24.903Z,1.92
2022-10-15T23:00:52.181Z,1.63
2022-10-15T23:03:19.218Z,1.70
2022-10-15T23:05:52.786Z,2.13
2022-10-15T23:08:19.662Z,1.98
2022-10-15T23:10:46.440Z,1.73
2022-10-15T23:13:13.326Z,1.83
2022-10-15T23:15:40.158Z,2.67
2022-10-15T23:18:06.910Z,1.70
2022-10-15T23:20:37.116Z,1.63
2022-10-15T23:23:04.978Z,1.60
2022-10-15T23:25:36.655Z,1.77
2022-10-15T23:28:03.624Z,1.92
2022-10-15T23:30:30.370Z,1.60
2022-10-15T23:32:57.183Z,1.70
2022-10-15T23:35:24.025Z,1.52
2022-10-15T23:37:50.819Z,1.60
2022-10-15T23:40:17.619Z,1.35
2022-10-15T23:42:44.597Z,1.85
2022-10-15T23:45:11.381Z,1.95
2022-10-15T23:47:38.255Z,1.70
2022-10-15T23:50:05.319Z,1.98
2022-10-15T23:52:32.343Z,1.88
2022-10-15T23:54:59.153Z,1.30
2022-10-15T23:57:26.346Z,1.85
2022-10-15T23:59:53.265Z,1.75
